Skip Navigation LinksHome page > Weather > Current weather Skip Navigation Links

Current Weather

Ben-Gurion Intl Apt, Tel Aviv, Israel

For information only: do not use for flight planning or navigation.
Latest weather
Observation time Saturday, May 30, 2020 1:50 AM IDT
Local time Saturday, May 30, 2020 2:19 AM IDT
Flight conditions Visual Meteorological Conditions
Winds
Wind direction variable
Wind speed 3 mph
Visibility 6.2 mi.
Sky condition
Ceiling 4,000 ft. broken clouds
Cloud layer broken clouds 4,000 ft.
Temperature 66°F
Dewpoint 54°F
Altimeter 30.03 in.Hg
Derived measurements
Relative humidity 64%
Density altitude 700 ft.
Remarks
No significant changes expected in the next two hours.
METAR LLBG 292250Z VRB03KT 9999 BKN040 19/12 Q1017 NOSIG

Settings

Location code

InnerDrive.Weather 4.0.6770.0 Release CLR 4.0.30319.42000
Copyright ©2018 Inner Drive Technology. All rights reserved. Portions Copyright ©1986-2018 David Braverman.

Find weather

Site navigation


Skip Navigation Links

Place info

Page info

PayPal - The safer, easier way to pay online!

Return home.

Copyright ©2020 Inner Drive Technology. Purveyors of fine, hand-crafted computer software. Page printed 2020-05-29T23:19:27 UTC.